Time;durP1;ratioP1;P1;durP2;ratioP2;P2;SDS_P1;SDS_P2;PMS_P1;PMS_P2;Temp;Humidity;BMP_temperature;BMP_pressure;BME280_temperature;BME280_humidity;BME280_pressure;Samples;Min_cycle;Max_cycle;Signal;HPM_P1;HPM_P2
2022/07/07 05:10:10;;;;;;;13.13;0.65;;;;;;;17.08;71.91;102181.63;5053342;27;126638;-34
2022/07/07 05:12:35;;;;;;;7.22;1.15;;;;;;;17.03;71.68;102175.59;5053651;27;101339;-35
2022/07/07 05:15:01;;;;;;;4.57;1.25;;;;;;;17.06;71.70;102189.06;5055530;27;96437;-35
2022/07/07 05:17:27;;;;;;;9.27;2.00;;;;;;;16.99;71.82;102176.78;5055144;27;96805;-35
2022/07/07 05:19:52;;;;;;;5.25;0.55;;;;;;;17.07;71.48;102190.84;5053715;27;97304;-35
2022/07/07 05:22:17;;;;;;;4.32;0.70;;;;;;;17.12;71.31;102196.00;5054436;27;124929;-35
2022/07/07 05:24:42;;;;;;;6.03;0.95;;;;;;;17.16;71.12;102203.00;5054953;27;110347;-35
2022/07/07 05:27:08;;;;;;;4.80;0.65;;;;;;;17.11;71.33;102197.88;5054424;27;96858;-34
2022/07/07 05:29:33;;;;;;;1.27;0.60;;;;;;;17.05;70.95;102194.66;5053934;27;99309;-34
2022/07/07 05:31:58;;;;;;;2.38;0.47;;;;;;;17.06;71.51;102205.47;5054007;27;97350;-35
2022/07/07 05:34:24;;;;;;;14.30;1.17;;;;;;;17.05;71.80;102202.88;5054050;27;96972;-35
2022/07/07 05:36:49;;;;;;;4.07;0.63;;;;;;;17.07;71.54;102220.06;5053719;27;112998;-35
2022/07/07 05:39:14;;;;;;;5.18;0.95;;;;;;;17.05;71.79;102222.03;5052919;27;98037;-35
2022/07/07 05:41:40;;;;;;;5.85;1.00;;;;;;;17.02;71.88;102211.28;5053782;27;112015;-35
2022/07/07 05:44:06;;;;;;;5.53;0.85;;;;;;;17.02;71.36;102230.44;5052821;27;96664;-35
2022/07/07 05:46:31;;;;;;;7.35;0.85;;;;;;;16.96;71.29;102220.78;5054756;27;97687;-35
2022/07/07 05:48:57;;;;;;;5.75;0.75;;;;;;;17.04;71.40;102234.84;5053644;27;119288;-35
2022/07/07 05:51:22;;;;;;;8.90;0.88;;;;;;;17.08;71.30;102241.84;5053054;27;101285;-35
2022/07/07 05:53:47;;;;;;;8.57;0.95;;;;;;;17.06;70.97;102232.88;5053853;27;99913;-35
2022/07/07 05:56:12;;;;;;;6.72;0.85;;;;;;;17.10;70.54;102247.25;5054551;27;96828;-35
2022/07/07 05:58:38;;;;;;;2.85;0.77;;;;;;;17.11;70.60;102251.72;5053522;27;120478;-35
2022/07/07 06:01:03;;;;;;;10.50;0.98;;;;;;;17.09;70.82;102243.63;5054393;27;97736;-35
2022/07/07 06:03:28;;;;;;;13.57;1.27;;;;;;;17.15;70.51;102253.28;5053345;27;96684;-35
2022/07/07 06:05:54;;;;;;;5.75;1.40;;;;;;;17.17;70.09;102240.38;5054595;27;96813;-35
2022/07/07 06:08:19;;;;;;;6.78;1.15;;;;;;;17.18;69.88;102250.34;5053427;27;126327;-35
2022/07/07 06:10:45;;;;;;;6.60;0.95;;;;;;;17.17;70.03;102246.72;5054455;27;97283;-35
2022/07/07 06:13:10;;;;;;;10.57;1.17;;;;;;;17.22;70.26;102253.75;5052609;27;96916;-35
2022/07/07 06:15:36;;;;;;;5.03;0.93;;;;;;;17.17;70.41;102265.03;5054157;27;96871;-35
2022/07/07 06:18:02;;;;;;;9.63;1.00;;;;;;;17.13;70.89;102261.59;5053483;27;99253;-35
2022/07/07 06:20:28;;;;;;;3.55;0.82;;;;;;;17.07;70.34;102272.09;5053798;27;99311;-35
2022/07/07 06:22:54;;;;;;;8.57;0.93;;;;;;;17.07;70.44;102269.38;5052872;27;96568;-35
2022/07/07 06:25:20;;;;;;;6.03;0.85;;;;;;;17.08;70.18;102293.88;5054364;27;96798;-35
2022/07/07 06:27:45;;;;;;;1.33;0.60;;;;;;;17.02;71.23;102298.88;5053814;27;97950;-35
2022/07/07 06:30:11;;;;;;;6.63;0.82;;;;;;;16.88;71.85;102297.06;5053208;27;121871;-35
2022/07/07 06:32:36;;;;;;;2.58;0.98;;;;;;;16.86;72.51;102290.81;5053862;27;96665;-35
2022/07/07 06:35:01;;;;;;;2.85;0.60;;;;;;;16.96;72.15;102286.47;5054021;27;108646;-35
2022/07/07 06:37:27;;;;;;;2.72;0.90;;;;;;;17.08;72.41;102296.63;5053868;27;97516;-35
2022/07/07 06:39:52;;;;;;;3.53;0.88;;;;;;;17.26;72.14;102299.13;5053791;27;97900;-35
2022/07/07 06:42:17;;;;;;;5.20;0.80;;;;;;;17.25;72.25;102276.31;5053244;27;97084;-35
2022/07/07 06:44:43;;;;;;;2.47;0.80;;;;;;;17.34;71.57;102283.06;5053970;27;96771;-35
2022/07/07 06:47:08;;;;;;;5.47;1.08;;;;;;;17.43;71.23;102290.66;5053413;27;99565;-35
2022/07/07 06:49:34;;;;;;;11.10;1.10;;;;;;;17.52;71.29;102297.34;5053249;27;106041;-35
2022/07/07 06:51:59;;;;;;;2.63;0.70;;;;;;;17.68;71.54;102310.91;5053663;27;96587;-35
2022/07/07 06:54:24;;;;;;;2.15;1.10;;;;;;;17.71;70.94;102291.50;5053362;27;101901;-35
2022/07/07 06:56:50;;;;;;;4.05;1.52;;;;;;;17.76;70.29;102295.69;5053504;27;97882;-35
2022/07/07 06:59:16;;;;;;;3.92;0.75;;;;;;;17.76;70.69;102309.41;5053518;27;99498;-35
2022/07/07 07:01:42;;;;;;;4.05;0.98;;;;;;;17.60;71.18;102303.22;5052255;27;96817;-35
2022/07/07 07:04:09;;;;;;;1.83;0.65;;;;;;;17.50;71.17;102310.31;5052028;27;96892;-35
2022/07/07 07:06:34;;;;;;;3.53;1.05;;;;;;;17.40;70.69;102299.09;5052604;27;99714;-35
2022/07/07 07:09:00;;;;;;;4.10;1.20;;;;;;;17.38;70.89;102312.00;5051171;27;100224;-34
2022/07/07 07:11:26;;;;;;;5.63;0.98;;;;;;;17.41;71.14;102320.88;5053350;27;96531;-35
2022/07/07 07:13:52;;;;;;;1.65;0.55;;;;;;;17.34;70.40;102314.06;5052105;27;97013;-35
2022/07/07 07:16:18;;;;;;;2.45;0.80;;;;;;;17.45;70.37;102326.16;5051303;27;100616;-34
2022/07/07 07:18:44;;;;;;;2.63;0.65;;;;;;;17.42;69.89;102316.28;5051698;27;101391;-35
2022/07/07 07:21:09;;;;;;;3.65;0.82;;;;;;;17.58;69.67;102325.22;5053168;27;96573;-35
2022/07/07 07:23:35;;;;;;;3.42;0.68;;;;;;;17.85;68.54;102316.13;5052106;27;96813;-35
2022/07/07 07:26:00;;;;;;;6.32;1.05;;;;;;;17.96;68.17;102326.38;5053242;27;97242;-35
2022/07/07 07:28:26;;;;;;;0.88;0.45;;;;;;;17.99;67.95;102332.50;5053137;27;97854;-35
2022/07/07 07:30:52;;;;;;;3.50;0.60;;;;;;;17.93;67.79;102332.94;5052803;27;96437;-35
2022/07/07 07:33:17;;;;;;;4.05;0.65;;;;;;;17.88;67.76;102328.78;5052728;27;96698;-35
2022/07/07 07:35:42;;;;;;;3.55;0.52;;;;;;;17.86;67.58;102337.09;5052984;27;97988;-35
2022/07/07 07:38:08;;;;;;;7.35;0.80;;;;;;;18.13;67.33;102342.53;5052656;27;109045;-35
2022/07/07 07:40:34;;;;;;;2.67;0.57;;;;;;;18.25;65.75;102347.16;5052715;27;96593;-35
2022/07/07 07:42:59;;;;;;;4.97;0.32;;;;;;;18.13;66.49;102337.03;5051604;27;96854;-35
2022/07/07 07:45:24;;;;;;;4.45;0.77;;;;;;;17.96;66.33;102348.31;5052468;27;114459;-35
2022/07/07 07:47:49;;;;;;;2.33;0.60;;;;;;;17.87;66.98;102368.13;5052370;27;124087;-35
2022/07/07 07:50:18;;;;;;;6.88;0.70;;;;;;;17.76;68.29;102369.72;5052891;27;96493;-34
2022/07/07 07:52:45;;;;;;;1.30;0.45;;;;;;;17.65;68.83;102368.66;5051407;27;96603;-35
2022/07/07 07:55:13;;;;;;;2.20;0.47;;;;;;;17.53;68.97;102362.16;5051603;27;99535;-35
2022/07/07 07:57:39;;;;;;;3.75;1.48;;;;;;;17.52;68.79;102376.81;5051013;27;100899;-34
2022/07/07 08:00:08;;;;;;;8.90;0.80;;;;;;;17.61;68.73;102384.44;5051215;27;96908;-35
2022/07/07 08:02:34;;;;;;;0.95;0.35;;;;;;;17.67;68.46;102372.19;5052718;27;96752;-35
2022/07/07 08:04:59;;;;;;;6.22;0.50;;;;;;;17.63;69.02;102380.59;5051127;27;99864;-34
2022/07/07 08:07:25;;;;;;;7.22;0.90;;;;;;;17.58;69.45;102393.72;5052651;27;97303;-35
2022/07/07 08:09:50;;;;;;;3.33;0.55;;;;;;;17.53;69.53;102382.19;5051972;27;96646;-34
2022/07/07 08:12:15;;;;;;;0.95;0.45;;;;;;;17.56;69.19;102378.38;5053002;27;96803;-35
2022/07/07 08:14:41;;;;;;;2.72;0.80;;;;;;;17.52;69.33;102377.72;5052097;27;105615;-35
2022/07/07 08:17:07;;;;;;;2.05;0.45;;;;;;;17.59;69.29;102389.13;5052285;27;99232;-35
2022/07/07 08:19:32;;;;;;;6.53;0.93;;;;;;;17.53;69.49;102390.41;5050529;27;97031;-34
2022/07/07 08:21:58;;;;;;;3.30;0.52;;;;;;;17.45;69.89;102389.16;5052350;27;96816;-35
2022/07/07 08:24:23;;;;;;;8.38;1.08;;;;;;;17.37;70.66;102395.16;5052127;27;97026;-34
2022/07/07 08:26:48;;;;;;;2.00;0.40;;;;;;;17.41;71.38;102410.41;5052198;27;106460;-35
2022/07/07 08:29:14;;;;;;;3.30;0.40;;;;;;;17.43;70.79;102416.69;5056166;27;96654;-35
2022/07/07 08:31:40;;;;;;;3.15;0.77;;;;;;;17.53;71.36;102409.59;5055702;27;101141;-35
2022/07/07 08:34:05;;;;;;;3.35;0.60;;;;;;;17.67;70.16;102402.34;5055833;27;97847;-35
2022/07/07 08:36:31;;;;;;;5.38;0.98;;;;;;;17.69;69.36;102404.00;5056266;27;97590;-35
2022/07/07 08:38:57;;;;;;;4.53;0.55;;;;;;;17.70;69.59;102424.06;5055563;27;96682;-35
2022/07/07 08:41:23;;;;;;;4.55;0.40;;;;;;;17.59;70.08;102416.53;5054629;27;96866;-35
2022/07/07 08:43:49;;;;;;;1.20;0.30;;;;;;;17.55;71.17;102426.81;5053817;27;100911;-35
2022/07/07 08:46:15;;;;;;;2.88;0.20;;;;;;;17.62;70.99;102421.81;5055624;27;99326;-35
2022/07/07 08:48:40;;;;;;;2.72;0.30;;;;;;;17.71;70.49;102426.69;5055788;27;96513;-34
2022/07/07 08:51:06;;;;;;;3.78;0.85;;;;;;;17.80;70.83;102414.22;5056049;27;96832;-35
2022/07/07 08:53:35;;;;;;;1.27;0.30;;;;;;;18.01;70.13;102428.38;5054009;27;100772;-35
2022/07/07 08:56:04;;;;;;;1.83;0.32;;;;;;;18.33;69.96;102426.19;5053921;27;101043;-35
2022/07/07 08:58:31;;;;;;;0.50;0.17;;;;;;;18.54;68.67;102414.69;5055311;27;96659;-35
2022/07/07 09:00:57;;;;;;;6.55;0.65;;;;;;;18.43;68.52;102418.19;5054394;27;96970;-35
2022/07/07 09:03:22;;;;;;;2.65;0.43;;;;;;;18.35;68.76;102424.22;5055366;27;98044;-35
2022/07/07 09:05:48;;;;;;;3.22;0.30;;;;;;;18.22;69.09;102434.28;5054784;27;113925;-35
2022/07/07 09:08:19;;;;;;;3.63;0.50;;;;;;;18.13;69.55;102446.75;5053376;27;96904;-35
2022/07/07 09:10:45;;;;;;;3.08;0.65;;;;;;;18.12;69.66;102453.22;5053644;27;96996;-35
2022/07/07 09:13:31;;;;;;;1.58;0.60;;;;;;;18.01;70.02;102470.38;5053697;27;101491;-35
2022/07/07 09:16:02;;;;;;;1.17;0.38;;;;;;;17.77;70.45;102459.16;5055255;27;97530;-34
2022/07/07 09:18:35;;;;;;;3.40;0.97;;;;;;;17.76;70.53;102465.66;5055133;27;96676;-35
2022/07/07 09:21:03;;;;;;;5.10;0.70;;;;;;;17.77;71.11;102458.28;5055241;27;96686;-34
2022/07/07 09:23:29;;;;;;;3.85;0.57;;;;;;;18.19;70.07;102453.69;5053548;27;100959;-34
2022/07/07 09:25:55;;;;;;;0.68;0.35;;;;;;;18.47;69.10;102463.63;5053970;27;101470;-35
2022/07/07 09:28:20;;;;;;;2.92;0.45;;;;;;;18.42;69.43;102460.31;5055221;27;96452;-35
2022/07/07 09:30:48;;;;;;;9.05;1.33;;;;;;;18.45;69.36;102465.63;5055243;27;96762;-35
2022/07/07 09:33:15;;;;;;;2.08;0.70;;;;;;;18.29;69.57;102463.03;5052505;27;101262;-35
2022/07/07 09:38:30;;;;;;;5.80;1.20;;;;;;;17.86;71.69;102476.91;5054911;27;96692;-35
2022/07/07 09:41:05;;;;;;;6.68;0.85;;;;;;;18.04;71.31;102488.50;5054694;27;96765;-35
2022/07/07 09:43:33;;;;;;;3.97;0.63;;;;;;;18.06;70.84;102485.66;5052946;27;100822;-35
2022/07/07 09:46:22;;;;;;;7.00;1.25;;;;;;;17.97;71.03;102495.38;5053247;27;101538;-35
2022/07/07 09:48:50;;;;;;;4.82;0.93;;;;;;;17.97;71.51;102501.75;5055123;27;96592;-35
2022/07/07 09:51:19;;;;;;;5.25;0.90;;;;;;;18.02;71.07;102516.03;5053576;27;96834;-35
2022/07/07 09:54:15;;;;;;;1.92;0.40;;;;;;;18.11;71.12;102509.03;5054021;27;99395;-35
2022/07/07 09:56:46;;;;;;;4.72;0.52;;;;;;;18.12;70.56;102513.56;5052271;27;100940;-35
2022/07/07 09:59:18;;;;;;;5.82;0.90;;;;;;;18.04;70.92;102519.56;5052672;27;97237;-35
2022/07/07 10:01:45;;;;;;;2.72;0.52;;;;;;;17.96;69.85;102527.41;5054418;27;96791;-35
2022/07/07 10:04:13;;;;;;;7.15;1.23;;;;;;;17.91;70.23;102520.47;5052828;27;100537;-35
2022/07/07 10:06:40;;;;;;;6.38;1.00;;;;;;;17.82;69.91;102536.53;5054269;27;99541;-35
2022/07/07 10:09:16;;;;;;;5.53;1.02;;;;;;;17.81;71.11;102556.72;5052481;27;96692;-35
2022/07/07 10:11:46;;;;;;;3.75;0.73;;;;;;;17.74;71.62;102555.31;5053200;27;96744;-35
2022/07/07 10:14:14;;;;;;;1.95;0.60;;;;;;;17.75;71.43;102547.97;5052817;27;102000;-35
2022/07/07 10:16:42;;;;;;;5.00;1.00;;;;;;;17.89;71.24;102567.16;5052990;27;101355;-35
2022/07/07 10:19:09;;;;;;;7.45;0.77;;;;;;;17.96;70.47;102546.59;5052894;27;96597;-35
2022/07/07 10:21:35;;;;;;;5.28;0.70;;;;;;;18.19;69.79;102553.31;5052926;27;96776;-35
2022/07/07 10:24:01;;;;;;;0.82;0.35;;;;;;;18.34;69.59;102540.44;5053520;27;99237;-35
2022/07/07 10:26:41;;;;;;;5.28;1.05;;;;;;;18.42;69.23;102556.34;5052594;27;101106;-35
2022/07/07 10:29:08;;;;;;;2.40;0.88;;;;;;;18.45;68.84;102553.44;5052717;27;96583;-35
2022/07/07 10:31:34;;;;;;;1.42;0.50;;;;;;;18.46;68.60;102563.41;5052522;27;96907;-35
2022/07/07 10:34:02;;;;;;;10.30;1.50;;;;;;;18.51;68.31;102561.22;5052271;27;101424;-35
2022/07/07 10:36:49;;;;;;;3.80;0.90;;;;;;;18.65;68.09;102582.25;5052367;27;101004;-35
2022/07/07 10:39:22;;;;;;;5.55;0.65;;;;;;;18.69;67.73;102578.31;5054027;27;96552;-35
2022/07/07 10:42:32;;;;;;;4.75;1.02;;;;;;;18.89;67.03;102574.22;5052644;27;97273;-35
2022/07/07 10:44:57;;;;;;;6.25;0.93;;;;;;;18.94;67.23;102577.53;5030678;28;101026;-35
2022/07/07 10:47:23;;;;;;;6.93;1.02;;;;;;;18.91;67.08;102591.50;5045906;27;100981;-35
2022/07/07 10:49:51;;;;;;;4.65;1.08;;;;;;;18.76;66.95;102596.19;5052616;27;96566;-35
2022/07/07 10:52:41;;;;;;;4.18;0.82;;;;;;;18.65;67.70;102605.09;5052055;27;96738;-35
2022/07/07 10:55:07;;;;;;;5.47;0.88;;;;;;;18.53;67.61;102616.03;5048008;27;101194;-35
2022/07/07 10:57:44;;;;;;;5.20;1.02;;;;;;;18.39;68.48;102617.81;5052189;27;100734;-35
2022/07/07 11:00:18;;;;;;;3.97;1.10;;;;;;;18.42;68.72;102619.47;5052123;27;96626;-35
2022/07/07 11:02:47;;;;;;;8.55;0.85;;;;;;;18.55;67.84;102625.03;5053305;27;96812;-35
2022/07/07 11:05:12;;;;;;;8.27;1.10;;;;;;;18.68;67.92;102628.72;5053153;27;99203;-35
2022/07/07 11:07:37;;;;;;;3.30;0.83;;;;;;;18.68;67.54;102624.09;5053906;27;97246;-35
2022/07/07 11:10:13;;;;;;;4.75;1.00;;;;;;;18.59;67.14;102643.03;5053067;27;96814;-35
2022/07/07 11:12:43;;;;;;;1.83;0.57;;;;;;;18.47;69.22;102655.72;5052006;27;96928;-35
2022/07/07 11:15:15;;;;;;;1.20;0.55;;;;;;;18.30;70.68;102658.69;5052717;27;98129;-35
2022/07/07 11:17:53;;;;;;;1.80;0.65;;;;;;;18.22;70.44;102664.69;5053234;27;97995;-35
2022/07/07 11:20:24;;;;;;;0.73;0.43;;;;;;;18.31;70.48;102660.47;5052004;27;96729;-34
2022/07/07 11:23:10;;;;;;;0.57;0.38;;;;;;;18.30;71.36;102666.94;5051927;27;98743;-35
2022/07/07 11:25:36;;;;;;;6.93;1.00;;;;;;;18.20;71.29;102664.78;5051452;27;100960;-35
2022/07/07 11:28:04;;;;;;;4.07;0.55;;;;;;;18.09;72.23;102670.09;5051581;27;101215;-35
2022/07/07 11:30:30;;;;;;;2.28;0.80;;;;;;;18.08;72.29;102670.19;5051758;27;96676;-34
2022/07/07 11:32:58;;;;;;;4.45;1.13;;;;;;;17.99;71.92;102679.88;5053839;27;96745;-35
2022/07/07 11:35:27;;;;;;;1.65;0.95;;;;;;;17.88;73.03;102690.66;5051501;27;100956;-35
2022/07/07 11:37:53;;;;;;;1.77;0.80;;;;;;;17.88;73.04;102682.44;5051505;27;100544;-35
2022/07/07 11:40:18;;;;;;;2.92;0.73;;;;;;;17.85;72.82;102697.19;5052447;27;96509;-34
2022/07/07 11:42:44;;;;;;;1.73;0.70;;;;;;;17.81;73.38;102696.53;5053024;27;96802;-35
2022/07/07 11:45:19;;;;;;;1.70;1.25;;;;;;;17.90;72.41;102688.69;5052934;27;97382;-35
2022/07/07 11:47:45;;;;;;;7.00;0.80;;;;;;;18.02;72.74;102693.41;5051434;27;100448;-35
2022/07/07 11:50:11;;;;;;;4.85;1.08;;;;;;;18.16;72.92;102682.44;5051529;27;96654;-35
2022/07/07 11:52:36;;;;;;;7.60;1.10;;;;;;;18.34;71.31;102695.94;5052810;27;96744;-35
2022/07/07 11:55:05;;;;;;;4.38;0.85;;;;;;;18.34;71.06;102682.22;5052536;27;99671;-35
2022/07/07 11:57:33;;;;;;;6.60;1.55;;;;;;;18.46;70.89;102701.50;5051470;27;101249;-34
2022/07/07 12:00:16;;;;;;;5.13;1.30;;;;;;;18.46;69.94;102712.47;5051280;27;96762;-35
2022/07/07 12:02:43;;;;;;;7.70;1.45;;;;;;;18.14;69.53;102703.59;5051289;27;96727;-35
2022/07/07 12:05:09;;;;;;;5.82;0.82;;;;;;;18.08;69.74;102719.56;5050509;27;101141;-35
2022/07/07 12:07:34;;;;;;;11.68;1.75;;;;;;;17.91;69.15;102724.25;5051158;27;98059;-35
2022/07/07 12:09:59;;;;;;;7.18;1.00;;;;;;;18.00;69.85;102728.28;5052086;27;97271;-35
2022/07/07 12:12:25;;;;;;;6.53;1.10;;;;;;;18.08;68.44;102725.03;5051922;27;112822;-34
2022/07/07 12:14:51;;;;;;;6.80;1.58;;;;;;;18.15;68.05;102727.28;5052374;27;97391;-35
2022/07/07 12:17:36;;;;;;;8.63;1.70;;;;;;;18.40;67.94;102725.72;5052366;27;97836;-35
2022/07/07 12:20:04;;;;;;;5.90;1.42;;;;;;;18.51;67.14;102723.16;5050931;27;96496;-34
2022/07/07 12:22:36;;;;;;;4.90;1.02;;;;;;;18.53;65.84;102720.31;5051227;27;96833;-35
2022/07/07 12:25:08;;;;;;;13.63;2.00;;;;;;;18.50;66.02;102737.88;5052407;27;98080;-35
2022/07/07 12:27:34;;;;;;;8.30;1.17;;;;;;;18.45;65.46;102740.91;5052102;27;97450;-35
2022/07/07 12:30:06;;;;;;;10.95;1.05;;;;;;;18.43;64.57;102737.38;5051815;27;96492;-35
2022/07/07 12:32:31;;;;;;;;;;;;;;;18.45;62.94;102740.91;5034251;27;98422;-35
2022/07/07 12:34:57;;;;;;;6.45;0.98;;;;;;;18.45;62.86;102740.03;5052105;27;99723;-35
2022/07/07 12:37:42;;;;;;;7.40;1.10;;;;;;;18.49;62.60;102736.09;5050624;27;100625;-35
2022/07/07 12:40:10;;;;;;;7.10;1.77;;;;;;;18.51;62.94;102733.25;5050662;27;96512;-35
2022/07/07 12:42:36;;;;;;;6.22;1.55;;;;;;;18.61;61.10;102750.88;5052003;27;96842;-35
2022/07/07 12:45:09;;;;;;;17.13;2.35;;;;;;;18.82;61.81;102741.25;5050500;27;101074;-35
2022/07/07 12:47:34;;;;;;;9.07;1.55;;;;;;;18.94;61.84;102744.19;5052237;27;99322;-35
2022/07/07 12:49:59;;;;;;;7.63;1.35;;;;;;;19.11;60.90;102749.41;5051213;27;118650;-35
2022/07/07 12:52:25;;;;;;;3.78;1.25;;;;;;;19.19;58.66;102746.19;5052143;27;96793;-34
2022/07/07 12:54:55;;;;;;;8.68;1.13;;;;;;;19.24;60.02;102744.88;5050956;27;107171;-35
2022/07/07 12:57:26;;;;;;;8.70;1.55;;;;;;;19.42;57.02;102752.84;5051621;27;99588;-35
2022/07/07 12:59:51;;;;;;;5.90;1.03;;;;;;;19.47;56.99;102751.56;5050592;27;96696;-35
2022/07/07 13:02:16;;;;;;;5.05;1.38;;;;;;;19.41;58.72;102768.44;5052317;27;96809;-35
2022/07/07 13:04:43;;;;;;;19.10;1.83;;;;;;;19.23;57.94;102765.06;5051682;27;99590;-35
2022/07/07 13:07:08;;;;;;;8.88;1.80;;;;;;;19.09;58.51;102768.78;5051606;27;99538;-35
2022/07/07 13:09:34;;;;;;;7.63;1.25;;;;;;;19.05;58.73;102769.09;5051208;27;100222;-35
2022/07/07 13:11:59;;;;;;;11.68;1.63;;;;;;;19.09;58.35;102779.75;5051817;27;96893;-35
2022/07/07 13:14:25;;;;;;;7.90;1.30;;;;;;;19.02;58.54;102781.16;5054539;27;98550;-35
2022/07/07 13:16:51;;;;;;;2.95;0.95;;;;;;;19.06;58.26;102792.81;5055092;27;99042;-35
2022/07/07 13:19:16;;;;;;;6.22;1.02;;;;;;;18.99;57.50;102773.09;5054106;27;112405;-34
2022/07/07 13:21:41;;;;;;;1.85;0.90;;;;;;;19.00;58.32;102774.00;5055264;27;96871;-35
2022/07/07 13:24:07;;;;;;;8.18;0.90;;;;;;;19.01;57.55;102784.88;5054270;27;115076;-34
2022/07/07 13:26:33;;;;;;;4.03;1.02;;;;;;;18.97;57.61;102780.56;5054820;27;99005;-35
2022/07/07 13:28:58;;;;;;;3.28;1.00;;;;;;;18.96;57.09;102789.78;5053738;27;96697;-35
2022/07/07 13:31:24;;;;;;;5.38;1.35;;;;;;;18.89;57.22;102782.94;5054755;27;114954;-35
2022/07/07 13:33:49;;;;;;;7.70;1.25;;;;;;;18.92;56.86;102801.94;5054718;27;97561;-35
2022/07/07 13:36:14;;;;;;;7.63;1.85;;;;;;;18.77;58.07;102811.22;5055673;27;97333;-35
2022/07/07 13:38:40;;;;;;;4.70;0.95;;;;;;;18.62;57.89;102813.94;5054706;27;101881;-35
2022/07/07 13:41:05;;;;;;;2.97;0.98;;;;;;;18.50;59.42;102824.81;5053382;27;96889;-34
2022/07/07 13:43:30;;;;;;;3.15;0.70;;;;;;;18.40;58.82;102819.00;5053961;27;99801;-35
2022/07/07 13:45:56;;;;;;;6.72;1.25;;;;;;;18.39;59.56;102822.75;5054735;27;97336;-35
2022/07/07 13:48:21;;;;;;;5.72;1.20;;;;;;;18.45;59.55;102822.38;5054988;27;96623;-35
2022/07/07 13:50:47;;;;;;;4.88;0.90;;;;;;;18.52;59.08;102831.06;5054973;27;96841;-35
2022/07/07 13:56:34;;;;;;;13.82;0.98;;;;;;;18.74;58.90;102827.84;5053179;27;96937;-35
2022/07/07 13:58:59;;;;;;;6.45;0.82;;;;;;;18.72;58.42;102816.97;5054390;27;105090;-35
2022/07/07 14:01:25;;;;;;;3.92;1.23;;;;;;;18.72;58.24;102827.94;5054024;27;121323;-35
2022/07/07 14:03:50;;;;;;;3.67;1.08;;;;;;;18.78;58.78;102835.84;5054668;27;97657;-35
2022/07/07 14:06:16;;;;;;;3.97;0.98;;;;;;;18.73;58.47;102834.31;5053153;27;127274;-35
2022/07/07 14:08:41;;;;;;;9.55;1.17;;;;;;;18.65;58.81;102830.19;5054152;27;96527;-34
2022/07/07 14:11:07;;;;;;;6.78;1.50;;;;;;;18.53;59.20;102833.72;5054320;27;96862;-35
2022/07/07 14:13:33;;;;;;;8.63;1.08;;;;;;;18.50;59.84;102844.03;5052769;27;99488;-34
2022/07/07 14:15:58;;;;;;;8.07;1.38;;;;;;;18.40;59.42;102843.69;5053452;27;126695;-35
2022/07/07 14:18:24;;;;;;;5.07;1.40;;;;;;;18.40;59.14;102851.94;5054018;27;96660;-35
2022/07/07 14:20:49;;;;;;;7.13;1.27;;;;;;;18.51;59.14;102854.91;5054342;27;96815;-35
2022/07/07 14:23:14;;;;;;;8.10;1.30;;;;;;;18.65;58.70;102849.41;5053771;27;107915;-34
2022/07/07 14:25:40;;;;;;;4.32;0.88;;;;;;;18.66;58.57;102836.56;5053353;27;97753;-35
2022/07/07 14:28:05;;;;;;;5.57;1.33;;;;;;;18.68;57.72;102854.69;5053199;27;121562;-35
2022/07/07 14:30:30;;;;;;;13.40;1.33;;;;;;;18.66;57.12;102853.94;5054386;27;96767;-35
2022/07/07 14:32:56;;;;;;;5.97;1.13;;;;;;;18.66;57.35;102856.69;5052981;27;107573;-35
2022/07/07 14:35:22;;;;;;;7.60;1.42;;;;;;;18.75;57.42;102866.16;5053868;27;97886;-35
2022/07/07 14:37:47;;;;;;;2.58;0.68;;;;;;;18.64;55.34;102864.13;5054043;27;96629;-35
2022/07/07 14:40:12;;;;;;;9.27;1.08;;;;;;;18.59;56.96;102863.53;5053738;27;98529;-35
2022/07/07 14:42:38;;;;;;;5.05;0.82;;;;;;;18.46;57.28;102863.41;5053869;27;98511;-35
2022/07/07 14:45:03;;;;;;;5.70;1.35;;;;;;;18.44;56.46;102853.50;5053227;27;118126;-35
2022/07/07 14:47:29;;;;;;;2.72;1.23;;;;;;;18.49;57.07;102855.97;5053783;27;96440;-35
2022/07/07 14:49:54;;;;;;;7.38;1.40;;;;;;;18.49;57.21;102854.09;5053219;27;119728;-35
2022/07/07 14:52:19;;;;;;;3.83;0.90;;;;;;;18.52;56.89;102861.25;5053462;27;99417;-35
2022/07/07 14:54:45;;;;;;;2.90;1.17;;;;;;;18.60;57.26;102870.78;5052978;27;115145;-35
2022/07/07 14:57:10;;;;;;;3.60;1.13;;;;;;;18.57;56.67;102860.00;5053252;27;96494;-35
2022/07/07 14:59:36;;;;;;;5.13;0.85;;;;;;;18.54;56.72;102865.66;5053801;27;96828;-35
2022/07/07 15:02:01;;;;;;;3.90;1.10;;;;;;;18.50;56.53;102868.72;5053342;27;99899;-35
2022/07/07 15:04:27;;;;;;;5.45;0.98;;;;;;;18.41;56.52;102867.44;5052389;27;125375;-35
2022/07/07 15:06:52;;;;;;;4.07;0.80;;;;;;;18.46;56.80;102876.25;5053616;27;96809;-35
2022/07/07 15:09:19;;;;;;;10.60;1.38;;;;;;;18.48;57.08;102868.81;5053064;27;96883;-35
2022/07/07 15:11:44;;;;;;;5.65;1.13;;;;;;;18.59;56.77;102888.25;5051938;27;101153;-35
2022/07/07 15:14:10;;;;;;;2.85;1.05;;;;;;;18.54;55.79;102873.91;5053650;27;97788;-34
2022/07/07 15:16:35;;;;;;;4.18;0.98;;;;;;;18.58;55.68;102882.84;5053609;27;96482;-35
2022/07/07 15:19:00;;;;;;;9.70;1.25;;;;;;;18.66;55.78;102873.16;5053101;27;96909;-35
2022/07/07 15:21:26;;;;;;;3.28;1.25;;;;;;;18.81;54.35;102878.69;5052698;27;103145;-35
2022/07/07 15:23:52;;;;;;;3.92;1.30;;;;;;;18.87;54.52;102892.00;5053405;27;96686;-35
2022/07/07 15:26:17;;;;;;;6.50;1.05;;;;;;;18.96;54.91;102890.53;5053385;27;96774;-35
2022/07/07 15:28:43;;;;;;;8.90;1.30;;;;;;;18.97;55.06;102882.19;5052983;27;96626;-35
2022/07/07 15:31:11;;;;;;;1.92;0.90;;;;;;;18.97;55.00;102878.56;5053035;27;98009;-35
2022/07/07 15:33:37;;;;;;;5.32;1.33;;;;;;;18.98;55.16;102886.72;5052516;27;99124;-35
2022/07/07 15:36:04;;;;;;;6.35;1.10;;;;;;;19.04;54.68;102880.81;5052479;27;96638;-35
2022/07/07 15:38:31;;;;;;;4.43;0.95;;;;;;;19.05;54.86;102882.56;5051990;27;97001;-35
2022/07/07 15:40:56;;;;;;;11.20;1.13;;;;;;;19.07;54.96;102886.13;5051211;27;100958;-35
2022/07/07 15:43:21;;;;;;;5.97;0.93;;;;;;;18.98;54.36;102894.06;5052757;27;99167;-35
2022/07/07 15:45:47;;;;;;;5.95;1.08;;;;;;;18.85;54.40;102881.13;5052461;27;96512;-35
2022/07/07 15:48:12;;;;;;;5.28;1.35;;;;;;;18.90;54.02;102897.28;5052135;27;122453;-35
2022/07/07 15:50:38;;;;;;;3.72;1.08;;;;;;;18.79;53.19;102892.50;5052867;27;98055;-35
2022/07/07 15:53:03;;;;;;;4.68;1.10;;;;;;;18.76;54.03;102895.44;5052750;27;97296;-34
2022/07/07 15:55:28;;;;;;;2.42;0.98;;;;;;;18.74;54.99;102904.72;5051784;27;119308;-35
2022/07/07 15:57:54;;;;;;;4.90;0.93;;;;;;;18.62;54.40;102899.03;5051097;27;101923;-35
2022/07/07 16:00:19;;;;;;;5.90;1.38;;;;;;;18.58;55.29;102905.69;5051146;27;98142;-35
2022/07/07 16:02:45;;;;;;;4.57;1.30;;;;;;;18.52;54.82;102897.84;5052774;27;97913;-35
2022/07/07 16:05:10;;;;;;;1.20;0.82;;;;;;;18.50;55.15;102905.28;5052890;27;96736;-35
2022/07/07 16:07:35;;;;;;;7.40;1.48;;;;;;;18.52;55.32;102918.91;5052524;27;96503;-35
2022/07/07 16:10:01;;;;;;;8.55;1.60;;;;;;;18.49;56.05;102910.88;5051733;27;101396;-35
2022/07/07 16:12:26;;;;;;;4.28;1.02;;;;;;;18.50;56.17;102919.00;5052560;27;97204;-35
2022/07/07 16:14:51;;;;;;;8.38;1.27;;;;;;;18.49;56.34;102922.72;5052599;27;96663;-35
2022/07/07 16:17:17;;;;;;;1.63;0.77;;;;;;;18.45;56.52;102915.69;5052557;27;96761;-35
2022/07/07 16:19:43;;;;;;;7.32;1.08;;;;;;;18.52;56.48;102916.16;5050874;27;100993;-35
2022/07/07 16:22:09;;;;;;;6.85;1.33;;;;;;;18.58;56.93;102927.63;5052040;27;100334;-35
2022/07/07 16:24:34;;;;;;;6.55;1.38;;;;;;;18.57;56.91;102925.88;5052186;27;96776;-35
2022/07/07 16:27:02;;;;;;;12.52;1.35;;;;;;;18.46;56.93;102918.31;5051198;27;96899;-35
2022/07/07 16:29:29;;;;;;;4.35;1.10;;;;;;;18.41;57.29;102916.84;5050866;27;101195;-35
2022/07/07 16:31:55;;;;;;;3.30;0.93;;;;;;;18.37;57.14;102927.09;5051785;27;99775;-35
2022/07/07 16:34:20;;;;;;;6.35;1.27;;;;;;;18.34;57.58;102931.91;5051813;27;96628;-35
2022/07/07 16:36:46;;;;;;;5.97;1.35;;;;;;;18.33;57.04;102933.78;5052115;27;96875;-35